Terminal Aerodrome Forecast
Issued by NWS

Home | Current Version | Previous Version | Graphics & Text | Print | Product List | Glossary On
Versions: 1 2 3 4 5 6 7 8 9 10 11 12 13 14
820
FTUS43 KOAX 301720
TAFCDR
TAF
KCDR 301720Z 3018/0118 18010G20KT P6SM BKN080
     FM010100 18012KT P6SM BKN050
     FM011200 21006KT P6SM SCT050=

USA.gov is the U.S. government's official web portal to all federal, state and local government web resources and services.